sensor_id;sensor_type;location;lat;lon;timestamp;pressure;altitude;pressure_sealevel;temperature;humidity
38253;BME280;24785;52.372;20.672;2022-08-25T00:05:00;100998.28;;;19.65;100.00
38253;BME280;24785;52.372;20.672;2022-08-25T00:15:01;100995.53;;;19.73;100.00
38253;BME280;24785;52.372;20.672;2022-08-25T00:25:02;100974.13;;;19.72;100.00
38253;BME280;24785;52.372;20.672;2022-08-25T00:35:04;100986.28;;;19.92;100.00
38253;BME280;24785;52.372;20.672;2022-08-25T00:45:06;101006.88;;;20.01;100.00
38253;BME280;24785;52.372;20.672;2022-08-25T00:55:15;100993.47;;;19.88;100.00
38253;BME280;24785;52.372;20.672;2022-08-25T01:05:17;100984.81;;;19.86;100.00
38253;BME280;24785;52.372;20.672;2022-08-25T01:15:19;100994.38;;;20.09;100.00
38253;BME280;24785;52.372;20.672;2022-08-25T01:35:38;101007.19;;;20.08;100.00
38253;BME280;24785;52.372;20.672;2022-08-25T01:45:43;100998.34;;;20.20;100.00
38253;BME280;24785;52.372;20.672;2022-08-25T01:55:43;101001.38;;;20.27;100.00
38253;BME280;24785;52.372;20.672;2022-08-25T02:06:01;101004.25;;;20.31;100.00
38253;BME280;24785;52.372;20.672;2022-08-25T02:16:02;100989.19;;;20.33;100.00
38253;BME280;24785;52.372;20.672;2022-08-25T02:26:04;100991.75;;;20.38;100.00
38253;BME280;24785;52.372;20.672;2022-08-25T02:36:05;100974.50;;;20.43;100.00
38253;BME280;24785;52.372;20.672;2022-08-25T02:46:08;100980.38;;;20.54;100.00
38253;BME280;24785;52.372;20.672;2022-08-25T02:56:10;100980.00;;;20.64;100.00
38253;BME280;24785;52.372;20.672;2022-08-25T03:06:13;100985.91;;;20.66;100.00
38253;BME280;24785;52.372;20.672;2022-08-25T03:16:14;100979.19;;;20.63;100.00
38253;BME280;24785;52.372;20.672;2022-08-25T03:26:15;100971.69;;;20.60;100.00
38253;BME280;24785;52.372;20.672;2022-08-25T03:36:35;100965.63;;;20.55;100.00
38253;BME280;24785;52.372;20.672;2022-08-25T03:46:53;100967.88;;;20.53;100.00
38253;BME280;24785;52.372;20.672;2022-08-25T03:56:54;100962.94;;;20.46;100.00
38253;BME280;24785;52.372;20.672;2022-08-25T04:06:56;100971.56;;;20.48;100.00
38253;BME280;24785;52.372;20.672;2022-08-25T04:16:58;100980.25;;;20.41;100.00
38253;BME280;24785;52.372;20.672;2022-08-25T04:26:59;100975.28;;;20.43;100.00
38253;BME280;24785;52.372;20.672;2022-08-25T04:37:01;100966.78;;;20.36;100.00
38253;BME280;24785;52.372;20.672;2022-08-25T04:47:03;100967.06;;;20.52;100.00
38253;BME280;24785;52.372;20.672;2022-08-25T04:57:04;100955.09;;;20.45;100.00
38253;BME280;24785;52.372;20.672;2022-08-25T05:07:05;100964.44;;;20.64;100.00
38253;BME280;24785;52.372;20.672;2022-08-25T05:17:06;100967.94;;;20.73;100.00
38253;BME280;24785;52.372;20.672;2022-08-25T05:27:07;100963.19;;;20.91;100.00
38253;BME280;24785;52.372;20.672;2022-08-25T05:37:07;100967.75;;;21.08;100.00
38253;BME280;24785;52.372;20.672;2022-08-25T05:47:08;100975.78;;;21.34;100.00
38253;BME280;24785;52.372;20.672;2022-08-25T05:57:09;100972.94;;;21.63;100.00
38253;BME280;24785;52.372;20.672;2022-08-25T06:07:10;100969.00;;;21.94;100.00
38253;BME280;24785;52.372;20.672;2022-08-25T06:17:11;101000.97;;;22.39;100.00
38253;BME280;24785;52.372;20.672;2022-08-25T06:27:12;101011.94;;;22.75;100.00
38253;BME280;24785;52.372;20.672;2022-08-25T06:37:13;101024.94;;;22.90;100.00
38253;BME280;24785;52.372;20.672;2022-08-25T06:47:14;101018.91;;;22.97;100.00
38253;BME280;24785;52.372;20.672;2022-08-25T06:57:15;101025.09;;;23.46;100.00
38253;BME280;24785;52.372;20.672;2022-08-25T07:07:16;101038.53;;;23.76;100.00
38253;BME280;24785;52.372;20.672;2022-08-25T07:17:17;101043.97;;;24.04;98.97
38253;BME280;24785;52.372;20.672;2022-08-25T07:27:18;101056.91;;;24.47;94.12
38253;BME280;24785;52.372;20.672;2022-08-25T07:37:20;101054.00;;;24.40;94.31
38253;BME280;24785;52.372;20.672;2022-08-25T07:47:22;101062.41;;;24.78;90.04
38253;BME280;24785;52.372;20.672;2022-08-25T07:57:23;101054.91;;;25.42;83.64
38253;BME280;24785;52.372;20.672;2022-08-25T08:07:25;101059.41;;;25.15;85.26
38253;BME280;24785;52.372;20.672;2022-08-25T08:17:26;101051.78;;;25.24;86.51
38253;BME280;24785;52.372;20.672;2022-08-25T08:27:27;101056.13;;;25.25;83.69
38253;BME280;24785;52.372;20.672;2022-08-25T08:37:28;101051.47;;;25.45;83.29
38253;BME280;24785;52.372;20.672;2022-08-25T08:47:56;101052.16;;;26.16;78.23
38253;BME280;24785;52.372;20.672;2022-08-25T08:58:09;101057.34;;;26.40;75.51
38253;BME280;24785;52.372;20.672;2022-08-25T09:08:12;101062.75;;;26.56;75.30
38253;BME280;24785;52.372;20.672;2022-08-25T09:18:24;101049.84;;;26.18;77.40
38253;BME280;24785;52.372;20.672;2022-08-25T09:38:38;101039.25;;;26.39;74.12
38253;BME280;24785;52.372;20.672;2022-08-25T09:48:47;101031.25;;;26.76;72.88
38253;BME280;24785;52.372;20.672;2022-08-25T09:58:49;101011.66;;;27.31;71.50
38253;BME280;24785;52.372;20.672;2022-08-25T10:08:54;101011.16;;;27.21;71.51
38253;BME280;24785;52.372;20.672;2022-08-25T10:29:27;100991.28;;;27.99;66.73
38253;BME280;24785;52.372;20.672;2022-08-25T11:00:16;100935.22;;;28.72;60.70
38253;BME280;24785;52.372;20.672;2022-08-25T11:10:23;100915.38;;;29.14;56.72
38253;BME280;24785;52.372;20.672;2022-08-25T11:20:34;100906.38;;;29.32;57.52
38253;BME280;24785;52.372;20.672;2022-08-25T11:30:38;100882.47;;;29.86;54.46
38253;BME280;24785;52.372;20.672;2022-08-25T11:40:52;100874.63;;;30.02;53.51
38253;BME280;24785;52.372;20.672;2022-08-25T12:01:01;100850.84;;;30.58;43.47
38253;BME280;24785;52.372;20.672;2022-08-25T12:11:04;100846.94;;;30.45;43.81
38253;BME280;24785;52.372;20.672;2022-08-25T12:21:09;100853.66;;;30.36;45.52
38253;BME280;24785;52.372;20.672;2022-08-25T12:32:12;100836.81;;;31.22;41.45
38253;BME280;24785;52.372;20.672;2022-08-25T12:52:29;100819.31;;;31.36;40.15
38253;BME280;24785;52.372;20.672;2022-08-25T13:23:16;100786.88;;;31.36;35.20
38253;BME280;24785;52.372;20.672;2022-08-25T13:33:22;100774.78;;;31.64;31.42
38253;BME280;24785;52.372;20.672;2022-08-25T13:43:23;100762.66;;;31.96;29.28
38253;BME280;24785;52.372;20.672;2022-08-25T13:53:25;100758.09;;;32.16;29.43
38253;BME280;24785;52.372;20.672;2022-08-25T14:03:30;100754.47;;;31.33;31.69
38253;BME280;24785;52.372;20.672;2022-08-25T14:13:32;100752.13;;;31.31;30.25
38253;BME280;24785;52.372;20.672;2022-08-25T14:23:34;100741.44;;;31.82;28.69
38253;BME280;24785;52.372;20.672;2022-08-25T14:33:42;100740.56;;;31.40;30.11
38253;BME280;24785;52.372;20.672;2022-08-25T14:43:46;100739.00;;;31.39;31.19
38253;BME280;24785;52.372;20.672;2022-08-25T14:53:48;100732.06;;;31.61;29.24
38253;BME280;24785;52.372;20.672;2022-08-25T15:03:52;100750.41;;;31.48;31.28
38253;BME280;24785;52.372;20.672;2022-08-25T15:13:54;100741.13;;;31.14;30.34
38253;BME280;24785;52.372;20.672;2022-08-25T15:23:54;100734.13;;;30.95;30.84
38253;BME280;24785;52.372;20.672;2022-08-25T15:33:55;100740.81;;;31.56;29.63
38253;BME280;24785;52.372;20.672;2022-08-25T15:43:57;100739.81;;;32.26;29.23
38253;BME280;24785;52.372;20.672;2022-08-25T15:53:59;100737.03;;;31.40;31.74
38253;BME280;24785;52.372;20.672;2022-08-25T16:04:00;100725.91;;;32.90;29.03
38253;BME280;24785;52.372;20.672;2022-08-25T16:14:01;100716.81;;;34.10;27.80
38253;BME280;24785;52.372;20.672;2022-08-25T16:24:04;100716.44;;;33.14;29.15
38253;BME280;24785;52.372;20.672;2022-08-25T16:34:06;100727.25;;;31.21;33.20
38253;BME280;24785;52.372;20.672;2022-08-25T16:44:07;100734.09;;;29.83;35.20
38253;BME280;24785;52.372;20.672;2022-08-25T16:54:10;100747.72;;;28.79;36.95
38253;BME280;24785;52.372;20.672;2022-08-25T17:04:49;100764.19;;;27.93;39.32
38253;BME280;24785;52.372;20.672;2022-08-25T17:14:50;100762.16;;;27.01;40.92
38253;BME280;24785;52.372;20.672;2022-08-25T17:24:52;100756.88;;;26.29;42.54
38253;BME280;24785;52.372;20.672;2022-08-25T17:34:53;100779.47;;;25.66;43.48
38253;BME280;24785;52.372;20.672;2022-08-25T17:44:54;100796.56;;;24.78;46.66
38253;BME280;24785;52.372;20.672;2022-08-25T17:54:55;100805.50;;;23.74;50.60
38253;BME280;24785;52.372;20.672;2022-08-25T18:04:55;100815.97;;;23.00;52.69
38253;BME280;24785;52.372;20.672;2022-08-25T18:14:56;100828.38;;;22.45;56.42
38253;BME280;24785;52.372;20.672;2022-08-25T18:24:58;100826.66;;;21.80;60.82
38253;BME280;24785;52.372;20.672;2022-08-25T18:34:59;100838.81;;;20.95;63.39
38253;BME280;24785;52.372;20.672;2022-08-25T18:45:01;100845.16;;;20.58;69.16
38253;BME280;24785;52.372;20.672;2022-08-25T18:55:04;100841.84;;;20.14;69.98
38253;BME280;24785;52.372;20.672;2022-08-25T19:05:06;100845.44;;;19.97;71.68
38253;BME280;24785;52.372;20.672;2022-08-25T19:15:07;100847.94;;;19.64;73.15
38253;BME280;24785;52.372;20.672;2022-08-25T19:25:10;100844.44;;;19.38;76.23
38253;BME280;24785;52.372;20.672;2022-08-25T19:35:22;100837.75;;;19.18;78.45
38253;BME280;24785;52.372;20.672;2022-08-25T19:45:24;100835.69;;;18.98;85.10
38253;BME280;24785;52.372;20.672;2022-08-25T19:55:25;100844.59;;;18.72;90.59
38253;BME280;24785;52.372;20.672;2022-08-25T20:05:28;100834.16;;;18.48;93.23
38253;BME280;24785;52.372;20.672;2022-08-25T20:15:28;100833.13;;;18.27;97.07
38253;BME280;24785;52.372;20.672;2022-08-25T20:25:31;100835.09;;;17.96;99.45
38253;BME280;24785;52.372;20.672;2022-08-25T20:35:32;100844.88;;;17.74;100.00
38253;BME280;24785;52.372;20.672;2022-08-25T20:45:33;100832.38;;;17.42;100.00
38253;BME280;24785;52.372;20.672;2022-08-25T20:55:34;100839.88;;;17.00;100.00
38253;BME280;24785;52.372;20.672;2022-08-25T21:05:40;100841.03;;;16.86;100.00
38253;BME280;24785;52.372;20.672;2022-08-25T21:15:41;100835.22;;;16.79;100.00
38253;BME280;24785;52.372;20.672;2022-08-25T21:25:48;100843.34;;;16.65;100.00
38253;BME280;24785;52.372;20.672;2022-08-25T21:35:49;100834.75;;;16.63;100.00
38253;BME280;24785;52.372;20.672;2022-08-25T21:45:50;100842.28;;;16.25;100.00
38253;BME280;24785;52.372;20.672;2022-08-25T21:55:51;100846.66;;;16.07;100.00
38253;BME280;24785;52.372;20.672;2022-08-25T22:05:53;100824.53;;;15.78;100.00
38253;BME280;24785;52.372;20.672;2022-08-25T22:15:54;100811.06;;;15.59;100.00
38253;BME280;24785;52.372;20.672;2022-08-25T22:25:55;100819.53;;;15.52;100.00
38253;BME280;24785;52.372;20.672;2022-08-25T22:35:56;100803.34;;;15.20;100.00
38253;BME280;24785;52.372;20.672;2022-08-25T22:46:01;100817.88;;;14.86;100.00
38253;BME280;24785;52.372;20.672;2022-08-25T22:56:05;100806.28;;;14.86;100.00
38253;BME280;24785;52.372;20.672;2022-08-25T23:06:14;100788.22;;;14.86;100.00
38253;BME280;24785;52.372;20.672;2022-08-25T23:16:16;100778.78;;;14.65;100.00
38253;BME280;24785;52.372;20.672;2022-08-25T23:26:18;100776.47;;;14.58;100.00
38253;BME280;24785;52.372;20.672;2022-08-25T23:36:19;100774.53;;;14.40;100.00
38253;BME280;24785;52.372;20.672;2022-08-25T23:46:22;100770.88;;;14.31;100.00
38253;BME280;24785;52.372;20.672;2022-08-25T23:56:24;100776.72;;;14.14;100.00
